lundi 21 avril 2014

ALERTE SPOTTING 21/04/14


319 G-EZBF easyJet (couleur Invermess)
   U24242/U24243  09h05/09h35

320 F-GHQE Air Corsica
   XK4501/XK4500    07h20/08h30

32A EC-LVP Vueling (couleur Linking Europe)
   dpt VY6250  06h45
   VY6251/VY8178  11h35/12h10
  VY8177/VY1981  16h35/17h40
 VY1982 22h55

320 EC-JZQ Vueling (stickers Thanks)
   VY8024/VY8015   10h15/10h50
  VY8014/8027  14h40/15h15

E95 EC-KXD Air Europa (sticker)
   UX1025/UX1026  19h20/20h10

744 EC-LNA Pullmantur Air
  arv  AT642 21h50

 Manque les prévisions de : certains AB / AH / AZ / BA / BE / IB / KM / TP / TU
*** Heures en Local Time **
Prévisions matinales soumises à modifications de dernières minute.
 Voir le log du mois pour la version 'définitive' de la journée: 
 http://www.airkalo.com/ORLYAVIATION/Logdumois.html

le TAF de la journée:


METAR: LFPO 210230Z VRB01KT CAVOK 10/05 Q1004 NOSIG=
TAF LONG: LFPO 202300Z 2100/2206 VRB02KT CAVOK
BECMG 2103/2105 27004KT
PROB30 TEMPO 2109/2121 -SHRA BKN040=